sensor_id;sensor_type;location;lat;lon;timestamp;pressure;altitude;pressure_sealevel;temperature;humidity
77537;BME280;67783;51.656;16.106;2023-07-13T00:02:57;101304.91;;;25.42;42.86
77537;BME280;67783;51.656;16.106;2023-07-13T00:06:00;101304.45;;;25.38;42.99
77537;BME280;67783;51.656;16.106;2023-07-13T00:09:16;101300.20;;;25.36;43.25
77537;BME280;67783;51.656;16.106;2023-07-13T00:12:30;101296.41;;;25.37;42.82
77537;BME280;67783;51.656;16.106;2023-07-13T00:15:32;101300.59;;;25.33;42.85
77537;BME280;67783;51.656;16.106;2023-07-13T00:18:38;101307.33;;;25.30;43.22
77537;BME280;67783;51.656;16.106;2023-07-13T00:21:40;101302.87;;;25.29;42.93
77537;BME280;67783;51.656;16.106;2023-07-13T00:24:43;101303.91;;;25.28;43.28
77537;BME280;67783;51.656;16.106;2023-07-13T00:27:46;101310.25;;;25.28;43.02
77537;BME280;67783;51.656;16.106;2023-07-13T00:30:49;101324.54;;;25.24;43.16
77537;BME280;67783;51.656;16.106;2023-07-13T00:33:58;101316.31;;;25.24;43.83
77537;BME280;67783;51.656;16.106;2023-07-13T00:37:01;101320.77;;;25.25;43.18
77537;BME280;67783;51.656;16.106;2023-07-13T00:40:04;101322.84;;;25.23;43.26
77537;BME280;67783;51.656;16.106;2023-07-13T00:43:14;101315.27;;;25.25;43.00
77537;BME280;67783;51.656;16.106;2023-07-13T00:46:20;101320.30;;;25.21;43.01
77537;BME280;67783;51.656;16.106;2023-07-13T00:49:24;101329.96;;;25.17;43.15
77537;BME280;67783;51.656;16.106;2023-07-13T00:52:26;101337.13;;;25.18;42.92
77537;BME280;67783;51.656;16.106;2023-07-13T00:55:29;101330.53;;;25.13;43.07
77537;BME280;67783;51.656;16.106;2023-07-13T00:58:31;101322.30;;;25.13;43.01
77537;BME280;67783;51.656;16.106;2023-07-13T01:01:33;101332.60;;;25.11;43.11
77537;BME280;67783;51.656;16.106;2023-07-13T01:04:41;101332.82;;;25.09;43.61
77537;BME280;67783;51.656;16.106;2023-07-13T01:07:48;101344.43;;;25.11;43.15
77537;BME280;67783;51.656;16.106;2023-07-13T01:10:52;101334.88;;;25.07;43.41
77537;BME280;67783;51.656;16.106;2023-07-13T01:13:54;101334.70;;;25.09;43.34
77537;BME280;67783;51.656;16.106;2023-07-13T01:16:56;101325.80;;;25.07;43.58
77537;BME280;67783;51.656;16.106;2023-07-13T01:20:02;101307.84;;;25.04;44.37
77537;BME280;67783;51.656;16.106;2023-07-13T01:23:08;101302.91;;;25.00;43.75
77537;BME280;67783;51.656;16.106;2023-07-13T01:26:11;101305.94;;;24.90;44.26
77537;BME280;67783;51.656;16.106;2023-07-13T01:29:13;101299.82;;;24.88;44.14
77537;BME280;67783;51.656;16.106;2023-07-13T01:32:18;101295.90;;;24.82;44.36
77537;BME280;67783;51.656;16.106;2023-07-13T01:35:25;101295.61;;;24.77;45.18
77537;BME280;67783;51.656;16.106;2023-07-13T01:38:28;101304.87;;;24.76;44.37
77537;BME280;67783;51.656;16.106;2023-07-13T01:41:30;101281.99;;;24.69;44.62
77537;BME280;67783;51.656;16.106;2023-07-13T01:44:31;101287.48;;;24.69;44.41
77537;BME280;67783;51.656;16.106;2023-07-13T01:47:33;101283.41;;;24.65;44.46
77537;BME280;67783;51.656;16.106;2023-07-13T01:50:43;101290.99;;;24.63;44.98
77537;BME280;67783;51.656;16.106;2023-07-13T01:53:44;101281.05;;;24.62;44.33
77537;BME280;67783;51.656;16.106;2023-07-13T01:56:47;101280.59;;;24.59;44.64
77537;BME280;67783;51.656;16.106;2023-07-13T01:59:48;101260.54;;;24.58;44.47
77537;BME280;67783;51.656;16.106;2023-07-13T02:02:50;101258.19;;;24.55;44.80
77537;BME280;67783;51.656;16.106;2023-07-13T02:05:52;101269.16;;;24.55;44.75
77537;BME280;67783;51.656;16.106;2023-07-13T02:08:53;101271.78;;;24.49;44.92
77537;BME280;67783;51.656;16.106;2023-07-13T02:11:58;101265.18;;;24.43;46.01
77537;BME280;67783;51.656;16.106;2023-07-13T02:15:00;101271.39;;;24.37;45.09
77537;BME280;67783;51.656;16.106;2023-07-13T02:18:01;101280.73;;;24.28;45.71
77537;BME280;67783;51.656;16.106;2023-07-13T02:21:04;101274.96;;;24.23;45.42
77537;BME280;67783;51.656;16.106;2023-07-13T02:24:06;101274.36;;;24.13;45.80
77537;BME280;67783;51.656;16.106;2023-07-13T02:27:08;101280.39;;;24.08;45.60
77537;BME280;67783;51.656;16.106;2023-07-13T02:30:10;101274.13;;;24.00;45.85
77537;BME280;67783;51.656;16.106;2023-07-13T02:33:14;101280.15;;;23.95;47.43
77537;BME280;67783;51.656;16.106;2023-07-13T02:36:16;101278.65;;;23.93;46.14
77537;BME280;67783;51.656;16.106;2023-07-13T02:39:19;101298.38;;;23.88;46.77
77537;BME280;67783;51.656;16.106;2023-07-13T02:42:21;101295.80;;;23.86;46.43
77537;BME280;67783;51.656;16.106;2023-07-13T02:45:22;101287.80;;;23.85;46.68
77537;BME280;67783;51.656;16.106;2023-07-13T02:48:36;101296.18;;;23.83;47.86
77537;BME280;67783;51.656;16.106;2023-07-13T02:51:38;101292.41;;;23.84;46.49
77537;BME280;67783;51.656;16.106;2023-07-13T02:54:39;101291.09;;;23.80;46.96
77537;BME280;67783;51.656;16.106;2023-07-13T02:57:41;101297.41;;;23.81;46.58
77537;BME280;67783;51.656;16.106;2023-07-13T03:00:43;101293.13;;;23.78;46.88
77537;BME280;67783;51.656;16.106;2023-07-13T03:03:55;101296.89;;;23.77;48.20
77537;BME280;67783;51.656;16.106;2023-07-13T03:06:57;101288.88;;;23.76;46.87
77537;BME280;67783;51.656;16.106;2023-07-13T03:09:59;101287.72;;;23.70;47.79
77537;BME280;67783;51.656;16.106;2023-07-13T03:13:01;101290.09;;;23.73;47.38
77537;BME280;67783;51.656;16.106;2023-07-13T03:16:03;101289.98;;;23.67;48.06
77537;BME280;67783;51.656;16.106;2023-07-13T03:19:15;101294.96;;;23.63;50.20
77537;BME280;67783;51.656;16.106;2023-07-13T03:22:18;101303.19;;;23.63;48.08
77537;BME280;67783;51.656;16.106;2023-07-13T03:25:20;101300.82;;;23.60;48.55
77537;BME280;67783;51.656;16.106;2023-07-13T03:28:22;101306.29;;;23.60;47.98
77537;BME280;67783;51.656;16.106;2023-07-13T03:31:27;101319.98;;;23.60;47.98
77537;BME280;67783;51.656;16.106;2023-07-13T03:34:36;101329.70;;;23.63;48.76
77537;BME280;67783;51.656;16.106;2023-07-13T03:37:38;101358.59;;;23.65;47.58
77537;BME280;67783;51.656;16.106;2023-07-13T03:40:43;101415.42;;;23.63;47.36
77537;BME280;67783;51.656;16.106;2023-07-13T03:43:45;101421.43;;;23.59;47.04
77537;BME280;67783;51.656;16.106;2023-07-13T03:46:49;101430.05;;;23.48;46.95
77537;BME280;67783;51.656;16.106;2023-07-13T03:49:56;101430.21;;;23.38;46.33
77537;BME280;67783;51.656;16.106;2023-07-13T03:52:59;101436.34;;;23.40;46.69
77537;BME280;67783;51.656;16.106;2023-07-13T03:56:01;101442.38;;;23.35;46.97
77537;BME280;67783;51.656;16.106;2023-07-13T03:59:03;101446.30;;;23.33;47.15
77537;BME280;67783;51.656;16.106;2023-07-13T04:02:05;101450.29;;;23.22;48.24
77537;BME280;67783;51.656;16.106;2023-07-13T04:05:17;101450.84;;;23.10;51.38
77537;BME280;67783;51.656;16.106;2023-07-13T04:08:19;101441.93;;;23.08;48.82
77537;BME280;67783;51.656;16.106;2023-07-13T04:11:24;101442.98;;;22.98;50.21
77537;BME280;67783;51.656;16.106;2023-07-13T04:14:26;101445.41;;;22.93;49.65
77537;BME280;67783;51.656;16.106;2023-07-13T04:17:27;101431.39;;;22.88;50.35
77537;BME280;67783;51.656;16.106;2023-07-13T04:20:37;101433.44;;;22.78;54.53
77537;BME280;67783;51.656;16.106;2023-07-13T04:23:39;101421.66;;;22.70;51.08
77537;BME280;67783;51.656;16.106;2023-07-13T04:26:40;101411.56;;;22.62;52.40
77537;BME280;67783;51.656;16.106;2023-07-13T04:29:42;101399.62;;;22.63;51.51
77537;BME280;67783;51.656;16.106;2023-07-13T04:32:44;101398.62;;;22.56;52.36
77537;BME280;67783;51.656;16.106;2023-07-13T04:35:45;101402.20;;;22.57;51.85
77537;BME280;67783;51.656;16.106;2023-07-13T04:38:50;101395.88;;;22.56;52.44
77537;BME280;67783;51.656;16.106;2023-07-13T04:41:55;101404.08;;;22.56;55.72
77537;BME280;67783;51.656;16.106;2023-07-13T04:44:57;101431.05;;;22.59;52.51
77537;BME280;67783;51.656;16.106;2023-07-13T04:47:58;101439.59;;;22.56;53.91
77537;BME280;67783;51.656;16.106;2023-07-13T04:51:00;101452.40;;;22.55;52.82
77537;BME280;67783;51.656;16.106;2023-07-13T04:54:03;101443.01;;;22.50;53.44
77537;BME280;67783;51.656;16.106;2023-07-13T04:57:15;101449.68;;;22.47;56.78
77537;BME280;67783;51.656;16.106;2023-07-13T05:00:17;101441.63;;;22.46;54.37
77537;BME280;67783;51.656;16.106;2023-07-13T05:03:19;101433.79;;;22.35;55.07
77537;BME280;67783;51.656;16.106;2023-07-13T05:06:21;101426.96;;;22.31;54.54
77537;BME280;67783;51.656;16.106;2023-07-13T05:09:22;101434.80;;;22.26;54.83
77537;BME280;67783;51.656;16.106;2023-07-13T05:12:24;101425.75;;;22.33;54.20
77537;BME280;67783;51.656;16.106;2023-07-13T05:15:26;101429.34;;;22.42;54.40
77537;BME280;67783;51.656;16.106;2023-07-13T05:18:31;101422.34;;;22.47;57.17
77537;BME280;67783;51.656;16.106;2023-07-13T05:21:33;101424.06;;;22.57;54.09
77537;BME280;67783;51.656;16.106;2023-07-13T05:24:34;101434.98;;;22.65;54.68
77537;BME280;67783;51.656;16.106;2023-07-13T05:27:36;101434.81;;;22.74;53.76
77537;BME280;67783;51.656;16.106;2023-07-13T05:30:38;101441.64;;;22.78;54.06
77537;BME280;67783;51.656;16.106;2023-07-13T05:33:40;101449.33;;;22.83;53.65
77537;BME280;67783;51.656;16.106;2023-07-13T05:36:42;101454.80;;;22.83;53.94
77537;BME280;67783;51.656;16.106;2023-07-13T05:39:46;101443.86;;;22.83;56.01
77537;BME280;67783;51.656;16.106;2023-07-13T05:42:48;101459.09;;;22.85;53.84
77537;BME280;67783;51.656;16.106;2023-07-13T05:45:53;101464.36;;;22.87;54.58
77537;BME280;67783;51.656;16.106;2023-07-13T05:48:54;101470.16;;;22.92;53.80
77537;BME280;67783;51.656;16.106;2023-07-13T05:51:56;101466.91;;;22.96;54.25
77537;BME280;67783;51.656;16.106;2023-07-13T05:55:07;101469.63;;;23.05;55.65
77537;BME280;67783;51.656;16.106;2023-07-13T05:58:12;101472.00;;;23.16;53.58
77537;BME280;67783;51.656;16.106;2023-07-13T06:01:15;101478.50;;;23.23;53.59
77537;BME280;67783;51.656;16.106;2023-07-13T06:04:17;101477.26;;;23.33;53.04
77537;BME280;67783;51.656;16.106;2023-07-13T06:07:19;101473.83;;;23.39;52.91
77537;BME280;67783;51.656;16.106;2023-07-13T06:10:27;101478.78;;;23.44;52.96
77537;BME280;67783;51.656;16.106;2023-07-13T06:13:28;101485.09;;;23.53;52.21
77537;BME280;67783;51.656;16.106;2023-07-13T06:16:30;101497.75;;;23.54;52.01
77537;BME280;67783;51.656;16.106;2023-07-13T06:19:32;101498.93;;;23.59;51.82
77537;BME280;67783;51.656;16.106;2023-07-13T06:22:33;101504.22;;;23.61;51.99
77537;BME280;67783;51.656;16.106;2023-07-13T06:25:35;101509.69;;;23.61;51.76
77537;BME280;67783;51.656;16.106;2023-07-13T06:28:37;101516.55;;;23.57;52.02
77537;BME280;67783;51.656;16.106;2023-07-13T06:31:42;101513.68;;;23.50;53.38
77537;BME280;67783;51.656;16.106;2023-07-13T06:34:43;101510.08;;;23.50;52.24
77537;BME280;67783;51.656;16.106;2023-07-13T06:37:45;101513.66;;;23.42;52.62
77537;BME280;67783;51.656;16.106;2023-07-13T06:40:48;101528.37;;;23.41;52.31
77537;BME280;67783;51.656;16.106;2023-07-13T06:43:49;101530.60;;;23.37;52.53
77537;BME280;67783;51.656;16.106;2023-07-13T06:46:51;101529.59;;;23.38;52.40
77537;BME280;67783;51.656;16.106;2023-07-13T06:49:53;101523.78;;;23.33;52.58
77537;BME280;67783;51.656;16.106;2023-07-13T06:52:57;101535.59;;;23.26;54.08
77537;BME280;67783;51.656;16.106;2023-07-13T06:56:00;101533.72;;;23.26;52.71
77537;BME280;67783;51.656;16.106;2023-07-13T06:59:02;101529.44;;;23.24;53.17
77537;BME280;67783;51.656;16.106;2023-07-13T07:02:04;101518.48;;;23.24;52.76
77537;BME280;67783;51.656;16.106;2023-07-13T07:05:06;101521.41;;;23.22;53.11
77537;BME280;67783;51.656;16.106;2023-07-13T07:08:18;101527.05;;;23.21;54.70
77537;BME280;67783;51.656;16.106;2023-07-13T07:11:22;101520.89;;;23.27;53.04
77537;BME280;67783;51.656;16.106;2023-07-13T07:14:24;101521.21;;;23.32;53.33
77537;BME280;67783;51.656;16.106;2023-07-13T07:17:26;101521.19;;;23.40;52.99
77537;BME280;67783;51.656;16.106;2023-07-13T07:20:27;101519.84;;;23.52;52.98
77537;BME280;67783;51.656;16.106;2023-07-13T07:23:38;101510.22;;;23.64;53.94
77537;BME280;67783;51.656;16.106;2023-07-13T07:26:40;101501.24;;;23.78;52.43
77537;BME280;67783;51.656;16.106;2023-07-13T07:29:41;101496.05;;;23.91;52.44
77537;BME280;67783;51.656;16.106;2023-07-13T07:32:43;101486.70;;;24.09;51.91
77537;BME280;67783;51.656;16.106;2023-07-13T07:35:44;101478.48;;;24.17;51.77
77537;BME280;67783;51.656;16.106;2023-07-13T07:38:46;101472.24;;;24.23;51.57
77537;BME280;67783;51.656;16.106;2023-07-13T07:41:47;101487.29;;;24.27;51.42
77537;BME280;67783;51.656;16.106;2023-07-13T07:44:53;101494.97;;;24.31;51.37
77537;BME280;67783;51.656;16.106;2023-07-13T07:47:54;101505.05;;;24.39;51.21
77537;BME280;67783;51.656;16.106;2023-07-13T07:51:00;101499.52;;;24.47;51.05
77537;BME280;67783;51.656;16.106;2023-07-13T07:54:03;101495.95;;;24.61;50.80
77537;BME280;67783;51.656;16.106;2023-07-13T07:57:06;101502.52;;;24.75;50.59
77537;BME280;67783;51.656;16.106;2023-07-13T08:00:15;101499.49;;;24.93;50.04
77537;BME280;67783;51.656;16.106;2023-07-13T08:03:17;101496.68;;;25.15;49.79
77537;BME280;67783;51.656;16.106;2023-07-13T08:06:18;101501.05;;;25.39;49.17
77537;BME280;67783;51.656;16.106;2023-07-13T08:09:22;101500.79;;;25.63;48.88
77537;BME280;67783;51.656;16.106;2023-07-13T08:12:24;101503.08;;;25.75;48.46
77537;BME280;67783;51.656;16.106;2023-07-13T08:15:34;101504.28;;;25.87;47.77
77537;BME280;67783;51.656;16.106;2023-07-13T08:18:36;101508.06;;;26.00;48.19
77537;BME280;67783;51.656;16.106;2023-07-13T08:21:37;101509.05;;;26.14;47.77
77537;BME280;67783;51.656;16.106;2023-07-13T08:24:39;101514.92;;;26.26;47.63
77537;BME280;67783;51.656;16.106;2023-07-13T08:27:40;101515.59;;;26.28;47.44
77537;BME280;67783;51.656;16.106;2023-07-13T08:30:42;101511.86;;;26.35;47.36
77537;BME280;67783;51.656;16.106;2023-07-13T08:33:43;101501.78;;;26.42;46.77
77537;BME280;67783;51.656;16.106;2023-07-13T08:36:48;101511.24;;;26.54;45.46
77537;BME280;67783;51.656;16.106;2023-07-13T08:39:50;101519.01;;;26.72;46.69
77537;BME280;67783;51.656;16.106;2023-07-13T08:42:58;101519.73;;;26.81;45.79
77537;BME280;67783;51.656;16.106;2023-07-13T08:46:08;101523.26;;;26.96;45.96
77537;BME280;67783;51.656;16.106;2023-07-13T08:49:15;101519.99;;;27.07;45.52
77537;BME280;67783;51.656;16.106;2023-07-13T08:52:28;101524.49;;;27.15;43.38
77537;BME280;67783;51.656;16.106;2023-07-13T08:55:34;101522.03;;;27.26;44.77
77537;BME280;67783;51.656;16.106;2023-07-13T08:58:41;101525.04;;;27.31;44.40
77537;BME280;67783;51.656;16.106;2023-07-13T09:05:09;101539.55;;;27.46;43.93
77537;BME280;67783;51.656;16.106;2023-07-13T09:11:38;101536.65;;;27.54;43.37
77537;BME280;67783;51.656;16.106;2023-07-13T09:14:56;101537.16;;;27.65;41.20
77537;BME280;67783;51.656;16.106;2023-07-13T09:18:08;101537.43;;;27.76;43.25
77537;BME280;67783;51.656;16.106;2023-07-13T09:21:24;101538.12;;;27.85;42.65
77537;BME280;67783;51.656;16.106;2023-07-13T09:27:42;101553.87;;;27.97;42.26
77537;BME280;67783;51.656;16.106;2023-07-13T09:33:58;101548.45;;;28.11;41.34
77537;BME280;67783;51.656;16.106;2023-07-13T09:37:00;101550.65;;;28.28;41.63
77537;BME280;67783;51.656;16.106;2023-07-13T09:40:02;101542.18;;;28.36;40.78
77537;BME280;67783;51.656;16.106;2023-07-13T09:43:17;101541.53;;;28.41;38.52
77537;BME280;67783;51.656;16.106;2023-07-13T09:46:21;101540.91;;;28.45;40.76
77537;BME280;67783;51.656;16.106;2023-07-13T09:49:28;101545.80;;;28.43;39.90
77537;BME280;67783;51.656;16.106;2023-07-13T09:52:40;101554.70;;;28.45;40.60
77537;BME280;67783;51.656;16.106;2023-07-13T09:55:44;101556.41;;;28.47;40.33
77537;BME280;67783;51.656;16.106;2023-07-13T09:58:47;101560.45;;;28.51;37.93
77537;BME280;67783;51.656;16.106;2023-07-13T10:01:49;101564.07;;;28.58;39.71
77537;BME280;67783;51.656;16.106;2023-07-13T10:11:30;101556.09;;;28.69;39.14
77537;BME280;67783;51.656;16.106;2023-07-13T10:14:34;101569.88;;;28.76;38.89
77537;BME280;67783;51.656;16.106;2023-07-13T10:17:40;101558.02;;;28.82;35.94
77537;BME280;67783;51.656;16.106;2023-07-13T10:20:42;101559.09;;;28.94;38.55
77537;BME280;67783;51.656;16.106;2023-07-13T10:23:48;101563.98;;;28.99;37.79
77537;BME280;67783;51.656;16.106;2023-07-13T10:27:01;101563.10;;;29.11;38.37
77537;BME280;67783;51.656;16.106;2023-07-13T10:33:18;101563.10;;;29.24;36.83
77537;BME280;67783;51.656;16.106;2023-07-13T10:36:33;101560.15;;;29.32;37.65
77537;BME280;67783;51.656;16.106;2023-07-13T10:39:35;101554.44;;;29.34;37.33
77537;BME280;67783;51.656;16.106;2023-07-13T10:42:43;101548.27;;;29.39;35.81
77537;BME280;67783;51.656;16.106;2023-07-13T10:45:47;101550.80;;;29.47;37.30
77537;BME280;67783;51.656;16.106;2023-07-13T10:48:57;101557.19;;;29.47;36.92
77537;BME280;67783;51.656;16.106;2023-07-13T10:52:20;101544.45;;;29.40;35.07
77537;BME280;67783;51.656;16.106;2023-07-13T10:58:34;101543.37;;;29.41;36.75
77537;BME280;67783;51.656;16.106;2023-07-13T11:01:46;101543.57;;;29.46;35.08
77537;BME280;67783;51.656;16.106;2023-07-13T11:04:49;101547.38;;;29.58;36.28
77537;BME280;67783;51.656;16.106;2023-07-13T11:14:27;101547.75;;;29.88;35.37
77537;BME280;67783;51.656;16.106;2023-07-13T11:20:45;101546.41;;;30.03;34.13
77537;BME280;67783;51.656;16.106;2023-07-13T11:24:03;101547.62;;;30.20;34.75
77537;BME280;67783;51.656;16.106;2023-07-13T11:27:14;101552.70;;;30.30;34.26
77537;BME280;67783;51.656;16.106;2023-07-13T11:33:50;101521.13;;;30.44;31.96
77537;BME280;67783;51.656;16.106;2023-07-13T11:36:52;101526.64;;;30.51;33.79
77537;BME280;67783;51.656;16.106;2023-07-13T11:39:54;101523.41;;;30.54;33.48
77537;BME280;67783;51.656;16.106;2023-07-13T11:43:06;101530.32;;;30.69;30.96
77537;BME280;67783;51.656;16.106;2023-07-13T11:49:25;101530.98;;;30.96;32.91
77537;BME280;67783;51.656;16.106;2023-07-13T11:52:36;101525.38;;;31.09;30.77
77537;BME280;67783;51.656;16.106;2023-07-13T11:55:38;101523.38;;;31.17;32.92
77537;BME280;67783;51.656;16.106;2023-07-13T11:58:40;101521.50;;;31.10;32.54
77537;BME280;67783;51.656;16.106;2023-07-13T12:01:46;101526.44;;;31.08;32.98
77537;BME280;67783;51.656;16.106;2023-07-13T12:04:49;101527.33;;;31.02;32.64
77537;BME280;67783;51.656;16.106;2023-07-13T12:07:54;101521.61;;;30.97;30.45
77537;BME280;67783;51.656;16.106;2023-07-13T12:11:03;101531.44;;;30.93;32.65
77537;BME280;67783;51.656;16.106;2023-07-13T12:14:17;101520.58;;;30.92;32.22
77537;BME280;67783;51.656;16.106;2023-07-13T12:17:23;101524.30;;;30.79;29.45
77537;BME280;67783;51.656;16.106;2023-07-13T12:20:33;101527.16;;;30.66;32.22
77537;BME280;67783;51.656;16.106;2023-07-13T12:23:36;101532.41;;;30.43;31.80
77537;BME280;67783;51.656;16.106;2023-07-13T12:26:54;101536.56;;;30.20;30.59
77537;BME280;67783;51.656;16.106;2023-07-13T12:30:05;101544.53;;;29.97;32.60
77537;BME280;67783;51.656;16.106;2023-07-13T12:33:11;101550.11;;;29.71;32.72
77537;BME280;67783;51.656;16.106;2023-07-13T12:36:15;101551.41;;;29.49;31.54
77537;BME280;67783;51.656;16.106;2023-07-13T12:39:28;101542.31;;;29.42;33.10
77537;BME280;67783;51.656;16.106;2023-07-13T12:42:32;101540.20;;;29.30;33.12
77537;BME280;67783;51.656;16.106;2023-07-13T12:48:54;101523.62;;;29.44;33.25
77537;BME280;67783;51.656;16.106;2023-07-13T12:51:57;101523.59;;;29.57;32.92
77537;BME280;67783;51.656;16.106;2023-07-13T12:55:12;101522.09;;;29.61;31.47
77537;BME280;67783;51.656;16.106;2023-07-13T13:01:34;101521.89;;;29.56;32.79
77537;BME280;67783;51.656;16.106;2023-07-13T13:04:40;101514.45;;;29.50;31.46
77537;BME280;67783;51.656;16.106;2023-07-13T13:07:43;101514.01;;;29.53;32.75
77537;BME280;67783;51.656;16.106;2023-07-13T13:10:48;101509.57;;;29.52;32.81
77537;BME280;67783;51.656;16.106;2023-07-13T13:13:50;101512.34;;;29.52;32.81
77537;BME280;67783;51.656;16.106;2023-07-13T13:16:52;101507.86;;;29.51;32.59
77537;BME280;67783;51.656;16.106;2023-07-13T13:19:56;101501.05;;;29.60;31.02
77537;BME280;67783;51.656;16.106;2023-07-13T13:22:58;101498.85;;;29.75;32.25
77537;BME280;67783;51.656;16.106;2023-07-13T13:25:59;101504.14;;;29.83;31.75
77537;BME280;67783;51.656;16.106;2023-07-13T13:29:03;101499.24;;;29.98;31.88
77537;BME280;67783;51.656;16.106;2023-07-13T13:32:11;101503.92;;;29.98;31.48
77537;BME280;67783;51.656;16.106;2023-07-13T13:35:19;101509.01;;;29.94;29.67
77537;BME280;67783;51.656;16.106;2023-07-13T13:38:26;101504.52;;;30.00;31.71
77537;BME280;67783;51.656;16.106;2023-07-13T13:41:28;101491.75;;;30.05;31.59
77537;BME280;67783;51.656;16.106;2023-07-13T13:44:29;101489.38;;;30.09;31.69
77537;BME280;67783;51.656;16.106;2023-07-13T13:47:32;101497.04;;;30.07;31.62
77537;BME280;67783;51.656;16.106;2023-07-13T13:50:37;101495.38;;;29.99;30.50
77537;BME280;67783;51.656;16.106;2023-07-13T13:53:39;101504.31;;;30.01;31.64
77537;BME280;67783;51.656;16.106;2023-07-13T13:56:46;101498.34;;;30.04;31.05
77537;BME280;67783;51.656;16.106;2023-07-13T13:59:48;101497.23;;;30.12;31.22
77537;BME280;67783;51.656;16.106;2023-07-13T14:02:50;101499.55;;;30.15;30.83
77537;BME280;67783;51.656;16.106;2023-07-13T14:05:58;101497.22;;;30.18;29.14
77537;BME280;67783;51.656;16.106;2023-07-13T14:09:00;101493.36;;;30.19;30.65
77537;BME280;67783;51.656;16.106;2023-07-13T14:12:05;101499.34;;;30.16;30.31
77537;BME280;67783;51.656;16.106;2023-07-13T14:15:17;101513.22;;;30.10;31.13
77537;BME280;67783;51.656;16.106;2023-07-13T14:18:20;101506.44;;;29.99;31.19
77537;BME280;67783;51.656;16.106;2023-07-13T14:21:25;101507.74;;;29.97;30.97
77537;BME280;67783;51.656;16.106;2023-07-13T14:24:28;101508.15;;;30.00;31.52
77537;BME280;67783;51.656;16.106;2023-07-13T14:27:29;101513.68;;;30.00;30.99
77537;BME280;67783;51.656;16.106;2023-07-13T14:30:31;101511.97;;;29.99;31.19
77537;BME280;67783;51.656;16.106;2023-07-13T14:33:32;101513.06;;;29.98;30.86
77537;BME280;67783;51.656;16.106;2023-07-13T14:36:37;101509.20;;;29.99;31.07
77537;BME280;67783;51.656;16.106;2023-07-13T14:39:39;101508.40;;;29.92;30.60
77537;BME280;67783;51.656;16.106;2023-07-13T14:42:44;101502.43;;;29.82;27.61
77537;BME280;67783;51.656;16.106;2023-07-13T14:45:50;101502.66;;;29.80;29.17
77537;BME280;67783;51.656;16.106;2023-07-13T14:49:00;101514.18;;;29.71;29.48
77537;BME280;67783;51.656;16.106;2023-07-13T14:52:13;101512.51;;;29.63;27.57
77537;BME280;67783;51.656;16.106;2023-07-13T14:55:18;101516.56;;;29.61;29.63
77537;BME280;67783;51.656;16.106;2023-07-13T14:58:20;101504.66;;;29.54;29.24
77537;BME280;67783;51.656;16.106;2023-07-13T15:01:22;101499.78;;;29.56;29.36
77537;BME280;67783;51.656;16.106;2023-07-13T15:04:24;101496.80;;;29.51;29.32
77537;BME280;67783;51.656;16.106;2023-07-13T15:07:31;101502.34;;;29.51;28.51
77537;BME280;67783;51.656;16.106;2023-07-13T15:10:34;101500.43;;;29.51;29.59
77537;BME280;67783;51.656;16.106;2023-07-13T15:13:38;101502.34;;;29.51;29.46
77537;BME280;67783;51.656;16.106;2023-07-13T15:16:40;101505.06;;;29.57;29.78
77537;BME280;67783;51.656;16.106;2023-07-13T15:19:42;101499.54;;;29.57;29.73
77537;BME280;67783;51.656;16.106;2023-07-13T15:22:51;101504.04;;;29.52;28.72
77537;BME280;67783;51.656;16.106;2023-07-13T15:25:53;101499.54;;;29.57;29.75
77537;BME280;67783;51.656;16.106;2023-07-13T15:28:54;101495.95;;;29.57;29.47
77537;BME280;67783;51.656;16.106;2023-07-13T15:31:56;101491.45;;;29.62;29.88
77537;BME280;67783;51.656;16.106;2023-07-13T15:34:57;101504.63;;;29.67;29.70
77537;BME280;67783;51.656;16.106;2023-07-13T15:37:59;101495.48;;;29.73;29.74
77537;BME280;67783;51.656;16.106;2023-07-13T15:41:01;101493.96;;;29.77;29.71
77537;BME280;67783;51.656;16.106;2023-07-13T15:47:18;101493.71;;;29.98;29.70
77537;BME280;67783;51.656;16.106;2023-07-13T15:50:23;101503.47;;;30.01;29.76
77537;BME280;67783;51.656;16.106;2023-07-13T15:53:34;101500.91;;;29.99;28.68
77537;BME280;67783;51.656;16.106;2023-07-13T15:56:37;101494.31;;;30.00;29.75
77537;BME280;67783;51.656;16.106;2023-07-13T15:59:41;101502.83;;;29.99;29.50
77537;BME280;67783;51.656;16.106;2023-07-13T16:02:44;101504.31;;;30.01;29.71
77537;BME280;67783;51.656;16.106;2023-07-13T16:05:46;101514.48;;;30.07;29.93
77537;BME280;67783;51.656;16.106;2023-07-13T16:08:53;101505.98;;;30.09;29.16
77537;BME280;67783;51.656;16.106;2023-07-13T16:11:55;101511.30;;;30.10;30.14
77537;BME280;67783;51.656;16.106;2023-07-13T16:14:59;101519.85;;;30.02;30.30
77537;BME280;67783;51.656;16.106;2023-07-13T16:18:01;101519.00;;;30.02;30.44
77537;BME280;67783;51.656;16.106;2023-07-13T16:21:02;101526.89;;;29.92;30.58
77537;BME280;67783;51.656;16.106;2023-07-13T16:24:18;101529.67;;;29.78;30.34
77537;BME280;67783;51.656;16.106;2023-07-13T16:27:21;101524.63;;;29.69;30.85
77537;BME280;67783;51.656;16.106;2023-07-13T16:30:27;101539.94;;;29.58;31.09
77537;BME280;67783;51.656;16.106;2023-07-13T16:33:39;101531.46;;;29.47;31.26
77537;BME280;67783;51.656;16.106;2023-07-13T16:36:42;101535.08;;;29.41;31.38
77537;BME280;67783;51.656;16.106;2023-07-13T16:39:49;101532.97;;;29.29;31.56
77537;BME280;67783;51.656;16.106;2023-07-13T16:43:09;101527.43;;;29.23;31.81
77537;BME280;67783;51.656;16.106;2023-07-13T16:46:19;101525.93;;;29.20;31.75